createdAt,value
2019-05-13T00:00:18.543Z,99.90
2019-05-13T00:02:48.402Z,99.90
2019-05-13T00:05:18.107Z,99.90
2019-05-13T00:07:47.693Z,99.90
2019-05-13T00:10:18.579Z,99.90
2019-05-13T00:12:48.478Z,99.90
2019-05-13T00:15:18.167Z,99.90
2019-05-13T00:17:48.586Z,99.90
2019-05-13T00:20:19.808Z,99.90
2019-05-13T00:22:49.409Z,99.90
2019-05-13T00:25:19.036Z,99.90
2019-05-13T00:27:49.014Z,99.90
2019-05-13T00:30:18.607Z,99.90
2019-05-13T00:32:48.229Z,99.90
2019-05-13T00:35:17.842Z,99.90
2019-05-13T00:37:47.457Z,99.90
2019-05-13T00:40:17.128Z,99.90
2019-05-13T00:42:46.969Z,99.90
2019-05-13T00:45:16.543Z,99.90
2019-05-13T00:47:46.154Z,99.90
2019-05-13T00:50:15.743Z,99.90
2019-05-13T00:52:45.568Z,99.90
2019-05-13T00:55:15.169Z,99.90
2019-05-13T00:57:45.165Z,99.90
2019-05-13T01:00:15.574Z,99.90
2019-05-13T01:02:45.264Z,99.90
2019-05-13T01:05:15.008Z,99.90
2019-05-13T01:07:44.884Z,99.90
2019-05-13T01:10:14.704Z,99.90
2019-05-13T01:12:44.410Z,99.90
2019-05-13T01:15:14.532Z,99.90
2019-05-13T01:17:44.892Z,99.90
2019-05-13T01:20:14.886Z,99.90
2019-05-13T01:22:45.472Z,99.90
2019-05-13T01:25:15.219Z,99.90
2019-05-13T01:27:44.839Z,99.90
2019-05-13T01:30:15.540Z,99.90
2019-05-13T01:32:45.220Z,99.90
2019-05-13T01:35:15.074Z,99.90
2019-05-13T01:37:46.193Z,99.90
2019-05-13T01:40:15.945Z,99.90
2019-05-13T01:42:45.834Z,99.90
2019-05-13T01:45:15.942Z,99.90
2019-05-13T01:47:45.713Z,99.90
2019-05-13T01:50:15.426Z,99.90
2019-05-13T01:52:44.989Z,99.90
2019-05-13T01:55:14.998Z,99.90
2019-05-13T01:57:44.643Z,99.90
2019-05-13T02:00:14.936Z,99.90
2019-05-13T02:02:44.796Z,99.90
2019-05-13T02:05:14.996Z,99.90
2019-05-13T02:07:56.863Z,99.90
2019-05-13T02:10:17.985Z,99.90
2019-05-13T02:12:47.748Z,99.90
2019-05-13T02:15:17.507Z,99.90
2019-05-13T02:17:47.104Z,99.90
2019-05-13T02:20:16.955Z,99.90
2019-05-13T02:22:46.541Z,99.90
2019-05-13T02:25:16.135Z,99.90
2019-05-13T02:27:45.835Z,99.90
2019-05-13T02:30:16.478Z,99.90
2019-05-13T02:32:46.191Z,99.90
2019-05-13T02:35:16.082Z,99.90
2019-05-13T02:37:45.792Z,99.90
2019-05-13T02:40:15.493Z,99.90
2019-05-13T02:42:45.182Z,99.90
2019-05-13T02:45:15.246Z,99.90
2019-05-13T02:47:44.856Z,99.90
2019-05-13T02:50:14.421Z,99.90
2019-05-13T02:52:44.616Z,99.90
2019-05-13T02:55:14.228Z,99.90
2019-05-13T02:57:44.036Z,99.90
2019-05-13T03:00:13.961Z,99.90
2019-05-13T03:02:44.287Z,99.90
2019-05-13T03:05:14.302Z,99.90
2019-05-13T03:07:43.866Z,99.90
2019-05-13T03:10:14.127Z,99.90
2019-05-13T03:12:43.657Z,99.90
2019-05-13T03:15:13.818Z,99.90
2019-05-13T03:18:03.413Z,99.90
2019-05-13T03:20:33.528Z,99.90
2019-05-13T03:23:03.387Z,99.90
2019-05-13T03:25:33.514Z,99.90
2019-05-13T03:28:03.599Z,99.90
2019-05-13T03:30:35.219Z,99.90
2019-05-13T03:33:11.014Z,99.90
2019-05-13T03:35:37.170Z,99.90
2019-05-13T03:38:07.017Z,99.90
2019-05-13T03:40:42.525Z,99.90
2019-05-13T03:43:12.873Z,99.90
2019-05-13T03:45:43.453Z,99.90
2019-05-13T03:48:13.618Z,99.90
2019-05-13T03:50:43.494Z,99.90
2019-05-13T03:53:13.346Z,99.90
2019-05-13T03:55:43.635Z,99.90
2019-05-13T03:58:13.569Z,99.90
2019-05-13T04:00:43.780Z,99.90
2019-05-13T04:03:13.919Z,99.90
2019-05-13T04:05:44.051Z,99.90
2019-05-13T04:08:13.903Z,99.90
2019-05-13T04:10:43.727Z,99.90
2019-05-13T04:13:13.513Z,99.90
2019-05-13T04:15:43.503Z,99.90
2019-05-13T04:18:13.513Z,99.90
2019-05-13T04:23:14.621Z,99.90
2019-05-13T04:25:44.874Z,99.90
2019-05-13T04:28:14.796Z,99.90
2019-05-13T04:30:44.402Z,99.90
2019-05-13T04:33:14.289Z,99.90
2019-05-13T04:35:53.856Z,99.90
2019-05-13T04:38:23.564Z,99.90
2019-05-13T04:41:04.113Z,99.90
2019-05-13T04:46:05.328Z,99.90
2019-05-13T04:48:45.111Z,99.90
2019-05-13T04:51:14.997Z,99.90
2019-05-13T04:53:45.891Z,99.90
2019-05-13T04:56:15.569Z,99.90
2019-05-13T04:58:45.151Z,99.90
2019-05-13T05:02:04.877Z,99.90
2019-05-13T05:04:45.041Z,99.90
2019-05-13T05:07:43.515Z,99.90
2019-05-13T05:17:46.331Z,99.90
2019-05-13T05:20:42.121Z,99.90
2019-05-13T05:23:51.425Z,99.90
2019-05-13T05:26:53.333Z,99.90
2019-05-13T05:29:32.128Z,99.90
2019-05-13T05:32:51.961Z,99.90
2019-05-13T05:35:54.923Z,99.90
2019-05-13T05:38:51.366Z,99.90
2019-05-13T05:41:25.607Z,99.90
2019-05-13T05:46:32.376Z,99.90
2019-05-13T05:49:07.515Z,99.90
2019-05-13T05:51:39.141Z,99.90
2019-05-13T05:54:14.476Z,99.90
2019-05-13T05:56:42.971Z,99.90
2019-05-13T05:59:12.661Z,99.90
2019-05-13T06:06:48.943Z,99.90
2019-05-13T06:09:18.525Z,99.90
2019-05-13T06:11:48.204Z,99.90
2019-05-13T06:14:22.077Z,99.90
2019-05-13T06:16:52.009Z,99.90
2019-05-13T06:19:32.238Z,99.90
2019-05-13T06:22:12.441Z,99.90
2019-05-13T06:27:24.489Z,99.90
2019-05-13T06:29:54.161Z,99.90
2019-05-13T06:32:26.465Z,99.90
2019-05-13T06:34:55.981Z,99.90
2019-05-13T06:40:07.043Z,99.90
2019-05-13T06:42:36.794Z,99.90
2019-05-13T06:45:09.180Z,99.90
2019-05-13T06:47:41.179Z,99.90
2019-05-13T06:50:21.932Z,99.90
2019-05-13T06:52:51.844Z,99.90
2019-05-13T06:55:21.735Z,99.90
2019-05-13T06:57:51.869Z,99.90
2019-05-13T07:00:22.757Z,99.90
2019-05-13T07:02:52.339Z,99.90
2019-05-13T07:05:22.803Z,99.90
2019-05-13T07:07:52.579Z,99.90
2019-05-13T07:10:22.154Z,99.90
2019-05-13T07:12:52.325Z,99.90
2019-05-13T07:15:22.530Z,99.90
2019-05-13T07:17:52.277Z,99.90
2019-05-13T07:20:22.787Z,99.90
2019-05-13T07:22:53.422Z,99.90
2019-05-13T07:25:23.106Z,99.90
2019-05-13T07:27:52.748Z,99.90
2019-05-13T07:30:44.992Z,99.90
2019-05-13T07:33:15.081Z,99.90
2019-05-13T07:35:46.068Z,99.90
2019-05-13T07:38:15.980Z,99.90
2019-05-13T07:40:45.695Z,99.90
2019-05-13T07:43:15.626Z,99.90
2019-05-13T07:45:45.343Z,99.90
2019-05-13T07:48:21.257Z,99.90
2019-05-13T07:50:56.797Z,99.90
2019-05-13T07:55:48.988Z,99.90
2019-05-13T07:58:22.621Z,99.90
2019-05-13T08:00:52.011Z,99.90
2019-05-13T08:05:53.066Z,99.90
2019-05-13T08:08:22.730Z,99.90
2019-05-13T08:13:33.810Z,99.90
2019-05-13T08:16:03.632Z,99.90
2019-05-13T08:18:33.665Z,99.90
2019-05-13T08:21:03.545Z,99.90
2019-05-13T08:23:33.220Z,99.90
2019-05-13T08:26:02.848Z,99.90
2019-05-13T08:28:32.661Z,99.90
2019-05-13T08:31:03.182Z,99.90
2019-05-13T08:33:32.881Z,99.90
2019-05-13T08:36:02.553Z,99.90
2019-05-13T08:38:32.267Z,99.90
2019-05-13T08:41:02.197Z,99.90
2019-05-13T08:43:32.070Z,99.90
2019-05-13T08:46:02.406Z,99.90
2019-05-13T08:48:32.666Z,99.90
2019-05-13T08:51:03.343Z,99.90
2019-05-13T08:53:43.656Z,99.90
2019-05-13T08:58:55.107Z,99.90
2019-05-13T09:01:24.748Z,99.90
2019-05-13T09:03:54.436Z,99.90
2019-05-13T09:06:24.198Z,99.90
2019-05-13T09:08:54.765Z,99.90
2019-05-13T09:11:24.729Z,99.90
2019-05-13T09:13:54.431Z,99.90
2019-05-13T09:16:24.048Z,99.90
2019-05-13T09:18:53.672Z,99.90
2019-05-13T09:21:23.309Z,99.90
2019-05-13T09:23:53.277Z,99.90
2019-05-13T09:26:22.957Z,99.90
2019-05-13T09:28:52.791Z,99.90
2019-05-13T09:31:22.399Z,99.80
2019-05-13T09:33:52.329Z,98.10
2019-05-13T09:36:21.971Z,96.60
2019-05-13T09:38:52.589Z,95.40
2019-05-13T09:41:22.423Z,95.40
2019-05-13T09:43:52.342Z,95.00
2019-05-13T09:46:22.710Z,94.80
2019-05-13T09:48:52.367Z,94.20
2019-05-13T09:51:22.015Z,98.00
2019-05-13T09:53:52.091Z,95.20
2019-05-13T09:58:53.497Z,96.20
2019-05-13T10:01:23.115Z,92.90
2019-05-13T10:03:57.843Z,93.40
2019-05-13T10:06:24.630Z,91.30
2019-05-13T10:29:31.661Z,81.50
2019-05-13T10:32:02.612Z,87.70
2019-05-13T10:34:34.637Z,88.10
2019-05-13T10:37:04.579Z,91.10
2019-05-13T10:39:34.217Z,93.20
2019-05-13T10:42:04.081Z,85.10
2019-05-13T10:44:33.763Z,88.30
2019-05-13T10:47:03.706Z,90.10
2019-05-13T10:49:37.223Z,90.10
2019-05-13T10:52:11.780Z,91.10
2019-05-13T10:54:41.558Z,87.90
2019-05-13T10:57:13.751Z,89.20
2019-05-13T10:59:44.708Z,84.90
2019-05-13T11:02:14.322Z,87.50
2019-05-13T11:04:47.050Z,88.00
2019-05-13T11:07:16.818Z,82.00
2019-05-13T11:09:46.587Z,83.10
2019-05-13T11:12:16.822Z,85.50
2019-05-13T11:14:50.340Z,74.00
2019-05-13T11:17:25.608Z,86.80
2019-05-13T11:19:49.531Z,79.50
2019-05-13T11:22:19.145Z,85.00
2019-05-13T11:24:51.689Z,75.90
2019-05-13T11:27:20.094Z,85.10
2019-05-13T11:29:52.313Z,84.50
2019-05-13T11:32:22.445Z,80.90
2019-05-13T11:34:53.704Z,81.50
2019-05-13T11:37:23.566Z,74.40
2019-05-13T11:39:53.257Z,73.90
2019-05-13T11:42:25.150Z,73.60
2019-05-13T11:44:56.656Z,78.50
2019-05-13T11:47:26.299Z,78.20
2019-05-13T11:49:55.862Z,74.20
2019-05-13T11:52:25.529Z,73.00
2019-05-13T11:54:55.175Z,77.30
2019-05-13T11:57:24.871Z,73.70
2019-05-13T11:59:54.556Z,73.30
2019-05-13T12:02:24.484Z,70.80
2019-05-13T12:04:54.354Z,67.00
2019-05-13T12:07:24.037Z,68.10
2019-05-13T12:09:53.722Z,70.80
2019-05-13T12:12:30.177Z,65.40
2019-05-13T12:15:22.205Z,67.30
2019-05-13T12:17:26.207Z,66.00
2019-05-13T12:19:55.800Z,80.80
2019-05-13T12:22:25.639Z,68.30
2019-05-13T12:24:55.254Z,72.30
2019-05-13T12:27:24.959Z,71.50
2019-05-13T12:29:54.909Z,74.70
2019-05-13T12:32:24.549Z,67.20
2019-05-13T12:34:54.298Z,72.70
2019-05-13T12:37:24.205Z,61.80
2019-05-13T12:39:54.702Z,70.50
2019-05-13T12:42:24.334Z,65.70
2019-05-13T12:45:09.285Z,65.30
2019-05-13T12:47:25.642Z,64.70
2019-05-13T12:49:55.233Z,73.60
2019-05-13T12:52:25.189Z,72.70
2019-05-13T12:54:55.109Z,75.00
2019-05-13T12:57:24.767Z,69.60
2019-05-13T12:59:54.451Z,69.40
2019-05-13T13:02:27.983Z,62.50
2019-05-13T13:05:19.927Z,70.70
2019-05-13T13:07:33.419Z,62.10
2019-05-13T13:10:01.484Z,67.00
2019-05-13T13:12:36.884Z,65.40
2019-05-13T13:15:31.789Z,65.60
2019-05-13T13:17:37.868Z,68.90
2019-05-13T13:20:09.702Z,67.10
2019-05-13T13:22:39.544Z,68.20
2019-05-13T13:25:13.020Z,68.60
2019-05-13T13:28:16.177Z,69.00
2019-05-13T13:30:14.182Z,70.20
2019-05-13T13:32:45.149Z,70.90
2019-05-13T13:35:15.534Z,72.10
2019-05-13T13:37:46.219Z,67.70
2019-05-13T13:40:25.998Z,64.70
2019-05-13T13:42:52.646Z,61.70
2019-05-13T13:45:22.853Z,66.00
2019-05-13T13:48:02.187Z,74.10
2019-05-13T13:50:24.653Z,75.10
2019-05-13T13:52:54.743Z,75.00
2019-05-13T13:55:25.894Z,66.80
2019-05-13T13:57:56.952Z,64.60
2019-05-13T14:00:38.106Z,67.00
2019-05-13T14:02:58.230Z,63.80
2019-05-13T14:05:28.141Z,64.10
2019-05-13T14:07:57.766Z,70.50
2019-05-13T14:10:27.410Z,66.10
2019-05-13T14:13:00.953Z,61.70
2019-05-13T14:15:31.164Z,67.60
2019-05-13T14:17:59.678Z,66.40
2019-05-13T14:20:29.601Z,65.80
2019-05-13T14:23:02.471Z,67.80
2019-05-13T14:25:32.474Z,75.40
2019-05-13T14:28:03.255Z,71.10
2019-05-13T14:30:33.319Z,71.90
2019-05-13T14:33:04.889Z,68.20
2019-05-13T14:35:36.251Z,66.00
2019-05-13T14:38:05.836Z,67.20
2019-05-13T14:40:35.534Z,65.50
2019-05-13T14:43:05.201Z,66.20
2019-05-13T14:45:35.745Z,68.20
2019-05-13T14:48:05.666Z,65.00
2019-05-13T14:50:35.289Z,70.50
2019-05-13T14:53:04.925Z,65.80
2019-05-13T14:55:36.797Z,61.40
2019-05-13T14:58:08.207Z,60.30
2019-05-13T15:00:38.420Z,63.10
2019-05-13T15:03:08.322Z,65.60
2019-05-13T15:05:38.116Z,62.40
2019-05-13T15:08:08.675Z,62.20
2019-05-13T15:10:41.747Z,62.70
2019-05-13T15:13:13.478Z,61.40
2019-05-13T15:15:45.588Z,60.00
2019-05-13T15:18:17.434Z,62.70
2019-05-13T15:20:48.514Z,63.60
2019-05-13T15:23:32.037Z,63.20
2019-05-13T15:26:02.780Z,62.80
2019-05-13T15:28:42.006Z,61.20
2019-05-13T15:31:16.394Z,64.00
2019-05-13T15:33:53.876Z,64.70
2019-05-13T15:36:25.328Z,66.30
2019-05-13T15:39:09.569Z,64.90
2019-05-13T15:41:41.789Z,67.30
2019-05-13T15:44:12.459Z,61.20
2019-05-13T15:46:43.702Z,62.60
2019-05-13T15:49:16.793Z,63.80
2019-05-13T15:51:48.409Z,67.20
2019-05-13T15:54:22.109Z,63.00
2019-05-13T15:56:55.656Z,63.60
2019-05-13T15:59:25.889Z,66.20
2019-05-13T16:01:56.874Z,62.50
2019-05-13T16:04:27.465Z,63.10
2019-05-13T16:06:58.802Z,65.40
2019-05-13T16:09:36.946Z,64.70
2019-05-13T16:12:07.915Z,63.50
2019-05-13T16:14:38.904Z,63.20
2019-05-13T16:17:09.328Z,65.50
2019-05-13T16:19:41.900Z,64.50
2019-05-13T16:22:12.763Z,65.60
2019-05-13T16:24:43.648Z,67.00
2019-05-13T16:27:16.460Z,64.20
2019-05-13T16:29:46.714Z,62.70
2019-05-13T16:32:16.617Z,64.20
2019-05-13T16:34:54.929Z,61.70
2019-05-13T16:37:25.881Z,65.10
2019-05-13T16:39:56.516Z,65.20
2019-05-13T16:42:26.641Z,65.50
2019-05-13T16:44:56.592Z,66.70
2019-05-13T16:47:28.014Z,64.30
2019-05-13T16:50:02.714Z,64.00
2019-05-13T16:52:33.274Z,62.40
2019-05-13T16:55:02.969Z,62.20
2019-05-13T16:57:32.706Z,64.30
2019-05-13T17:00:02.942Z,66.20
2019-05-13T17:02:33.251Z,69.30
2019-05-13T17:05:04.124Z,67.40
2019-05-13T17:07:34.595Z,63.90
2019-05-13T17:10:04.520Z,67.50
2019-05-13T17:12:35.667Z,65.40
2019-05-13T17:15:06.617Z,65.60
2019-05-13T17:17:40.873Z,62.40
2019-05-13T17:20:12.703Z,63.50
2019-05-13T17:22:44.488Z,62.60
2019-05-13T17:25:15.290Z,64.10
2019-05-13T17:27:45.450Z,63.30
2019-05-13T17:30:15.682Z,63.10
2019-05-13T17:32:45.781Z,62.20
2019-05-13T17:35:15.926Z,63.50
2019-05-13T17:37:46.200Z,63.20
2019-05-13T17:40:16.383Z,62.00
2019-05-13T17:42:47.979Z,61.00
2019-05-13T17:45:18.111Z,65.60
2019-05-13T17:47:47.818Z,64.10
2019-05-13T17:50:20.101Z,63.50
2019-05-13T17:52:51.449Z,62.80
2019-05-13T17:55:22.290Z,60.60
2019-05-13T17:57:55.479Z,61.30
2019-05-13T18:00:26.079Z,64.20
2019-05-13T18:02:57.117Z,62.90
2019-05-13T18:05:27.719Z,62.00
2019-05-13T18:08:01.656Z,66.20
2019-05-13T18:10:36.338Z,66.60
2019-05-13T18:13:06.354Z,62.60
2019-05-13T18:15:36.265Z,64.20
2019-05-13T18:18:06.430Z,65.40
2019-05-13T18:20:36.506Z,65.00
2019-05-13T18:23:06.843Z,63.30
2019-05-13T18:25:36.984Z,64.80
2019-05-13T18:28:08.946Z,66.90
2019-05-13T18:30:41.013Z,63.60
2019-05-13T18:33:11.911Z,66.60
2019-05-13T18:35:42.032Z,66.50
2019-05-13T18:38:12.356Z,66.80
2019-05-13T18:40:42.515Z,66.10
2019-05-13T18:43:12.543Z,64.80
2019-05-13T18:45:42.743Z,65.90
2019-05-13T18:48:13.223Z,70.00
2019-05-13T18:50:53.108Z,68.50
2019-05-13T18:53:23.079Z,70.60
2019-05-13T18:55:52.912Z,67.00
2019-05-13T18:58:24.820Z,67.00
2019-05-13T19:00:55.144Z,68.00
2019-05-13T19:03:25.180Z,70.00
2019-05-13T19:05:55.201Z,72.70
2019-05-13T19:08:25.788Z,71.30
2019-05-13T19:10:57.314Z,72.40
2019-05-13T19:13:28.520Z,73.10
2019-05-13T19:15:59.586Z,71.30
2019-05-13T19:18:31.837Z,70.80
2019-05-13T19:21:03.503Z,71.80
2019-05-13T19:23:34.728Z,74.40
2019-05-13T19:26:04.794Z,75.20
2019-05-13T19:28:34.911Z,75.10
2019-05-13T19:31:04.975Z,76.50
2019-05-13T19:33:35.096Z,73.40
2019-05-13T19:36:08.357Z,75.00
2019-05-13T19:38:42.266Z,78.00
2019-05-13T19:41:12.882Z,77.10
2019-05-13T19:43:43.087Z,73.50
2019-05-13T19:46:13.359Z,77.80
2019-05-13T19:48:43.469Z,76.40
2019-05-13T19:51:13.601Z,78.00
2019-05-13T19:53:45.013Z,76.80
2019-05-13T19:56:15.067Z,77.50
2019-05-13T19:58:45.609Z,77.70
2019-05-13T20:01:15.704Z,79.30
2019-05-13T20:03:46.146Z,79.70
2019-05-13T20:06:15.992Z,79.20
2019-05-13T20:08:46.795Z,83.00
2019-05-13T20:11:16.844Z,81.60
2019-05-13T20:13:47.190Z,83.10
2019-05-13T20:16:17.198Z,82.00
2019-05-13T20:18:47.096Z,83.00
2019-05-13T20:21:17.272Z,84.40
2019-05-13T20:23:47.525Z,84.20
2019-05-13T20:26:17.511Z,85.90
2019-05-13T20:28:47.573Z,85.70
2019-05-13T20:31:17.644Z,86.40
2019-05-13T20:33:47.521Z,86.00
2019-05-13T20:36:17.276Z,84.80
2019-05-13T20:38:47.273Z,89.20
2019-05-13T20:41:16.969Z,86.30
2019-05-13T20:43:49.144Z,87.50
2019-05-13T20:46:23.197Z,88.40
2019-05-13T20:48:52.883Z,88.60
2019-05-13T20:51:22.691Z,90.10
2019-05-13T20:53:52.540Z,89.00
2019-05-13T20:56:22.651Z,89.80
2019-05-13T20:58:52.476Z,89.40
2019-05-13T21:01:23.145Z,86.90
2019-05-13T21:03:53.571Z,89.10
2019-05-13T21:06:23.750Z,89.60
2019-05-13T21:08:53.800Z,89.60
2019-05-13T21:11:23.946Z,89.40
2019-05-13T21:13:54.411Z,90.30
2019-05-13T21:16:24.483Z,90.00
2019-05-13T21:18:54.712Z,91.00
2019-05-13T21:21:24.801Z,90.10
2019-05-13T21:23:55.408Z,90.30
2019-05-13T21:26:25.330Z,90.90
2019-05-13T21:28:56.088Z,91.30
2019-05-13T21:31:26.321Z,91.40
2019-05-13T21:33:56.962Z,90.50
2019-05-13T21:36:27.478Z,91.50
2019-05-13T21:38:57.567Z,92.10
2019-05-13T21:41:27.621Z,92.10
2019-05-13T21:43:57.656Z,91.40
2019-05-13T21:46:29.346Z,91.70
2019-05-13T21:49:01.042Z,91.40
2019-05-13T21:51:31.549Z,91.40
2019-05-13T21:54:01.867Z,91.80
2019-05-13T21:56:32.246Z,92.30
2019-05-13T21:59:03.059Z,92.90
2019-05-13T22:01:33.195Z,92.40
2019-05-13T22:04:03.548Z,93.20
2019-05-13T22:06:33.561Z,93.20
2019-05-13T22:09:04.567Z,93.80
2019-05-13T22:11:35.244Z,93.90
2019-05-13T22:14:05.450Z,93.90
2019-05-13T22:16:35.896Z,94.00
2019-05-13T22:19:06.004Z,93.80
2019-05-13T22:21:42.125Z,93.80
2019-05-13T22:24:23.112Z,93.80
2019-05-13T22:26:53.165Z,94.50
2019-05-13T22:29:23.322Z,94.70
2019-05-13T22:31:53.412Z,95.50
2019-05-13T22:34:23.517Z,94.90
2019-05-13T22:36:53.644Z,94.90
2019-05-13T22:39:24.031Z,95.10
2019-05-13T22:41:54.658Z,94.70
2019-05-13T22:44:24.311Z,95.40
2019-05-13T22:46:53.932Z,95.50
2019-05-13T22:49:23.667Z,94.80
2019-05-13T22:51:53.578Z,93.90
2019-05-13T22:54:23.593Z,95.30
2019-05-13T22:56:53.457Z,95.60
2019-05-13T22:59:24.733Z,96.10
2019-05-13T23:01:54.539Z,96.20
2019-05-13T23:04:24.529Z,96.30
2019-05-13T23:06:54.274Z,96.50
2019-05-13T23:09:24.262Z,96.20
2019-05-13T23:11:54.283Z,95.90
2019-05-13T23:14:23.994Z,96.10
2019-05-13T23:16:53.960Z,94.80
2019-05-13T23:19:23.853Z,95.10
2019-05-13T23:21:53.728Z,94.40
2019-05-13T23:24:23.686Z,94.10
2019-05-13T23:26:53.353Z,94.90
2019-05-13T23:29:23.230Z,95.80
2019-05-13T23:31:53.311Z,95.20
2019-05-13T23:34:23.179Z,95.80
2019-05-13T23:36:52.995Z,95.40
2019-05-13T23:39:23.424Z,95.30
2019-05-13T23:41:54.548Z,95.70
2019-05-13T23:44:27.970Z,95.90
2019-05-13T23:46:55.746Z,96.30
2019-05-13T23:49:26.687Z,95.90
2019-05-13T23:51:56.698Z,96.30
2019-05-13T23:54:26.785Z,96.50
2019-05-13T23:56:56.564Z,97.20
2019-05-13T23:59:26.856Z,97.20
